sensor_id;sensor_type;location;lat;lon;timestamp;P1;durP1;ratioP1;P2;durP2;ratioP2
69226;SDS011;56334;52.398;7.552;2023-09-19T00:01:47;11.85;;;3.05;;
69226;SDS011;56334;52.398;7.552;2023-09-19T00:04:13;11.48;;;2.95;;
69226;SDS011;56334;52.398;7.552;2023-09-19T00:09:06;11.57;;;2.30;;
69226;SDS011;56334;52.398;7.552;2023-09-19T00:11:36;14.45;;;3.22;;
69226;SDS011;56334;52.398;7.552;2023-09-19T00:14:02;12.68;;;2.92;;
69226;SDS011;56334;52.398;7.552;2023-09-19T00:16:29;11.23;;;2.50;;
69226;SDS011;56334;52.398;7.552;2023-09-19T00:18:57;12.77;;;2.50;;
69226;SDS011;56334;52.398;7.552;2023-09-19T00:21:24;11.68;;;2.58;;
69226;SDS011;56334;52.398;7.552;2023-09-19T00:23:50;11.93;;;3.00;;
69226;SDS011;56334;52.398;7.552;2023-09-19T00:26:16;10.65;;;2.70;;
69226;SDS011;56334;52.398;7.552;2023-09-19T00:28:43;11.82;;;2.75;;
69226;SDS011;56334;52.398;7.552;2023-09-19T00:31:09;9.65;;;2.25;;
69226;SDS011;56334;52.398;7.552;2023-09-19T00:33:35;9.60;;;2.25;;
69226;SDS011;56334;52.398;7.552;2023-09-19T00:36:01;11.23;;;2.70;;
69226;SDS011;56334;52.398;7.552;2023-09-19T00:38:30;10.90;;;2.55;;
69226;SDS011;56334;52.398;7.552;2023-09-19T00:40:57;15.88;;;3.22;;
69226;SDS011;56334;52.398;7.552;2023-09-19T00:43:24;8.57;;;2.20;;
69226;SDS011;56334;52.398;7.552;2023-09-19T00:45:53;9.50;;;2.25;;
69226;SDS011;56334;52.398;7.552;2023-09-19T00:48:20;12.05;;;3.22;;
69226;SDS011;56334;52.398;7.552;2023-09-19T00:53:15;9.77;;;2.90;;
69226;SDS011;56334;52.398;7.552;2023-09-19T00:55:45;11.27;;;2.67;;
69226;SDS011;56334;52.398;7.552;2023-09-19T00:58:11;11.15;;;2.35;;
69226;SDS011;56334;52.398;7.552;2023-09-19T01:00:37;13.93;;;2.53;;
69226;SDS011;56334;52.398;7.552;2023-09-19T01:05:31;11.75;;;2.45;;
69226;SDS011;56334;52.398;7.552;2023-09-19T01:07:57;11.60;;;2.47;;
69226;SDS011;56334;52.398;7.552;2023-09-19T01:10:23;12.15;;;2.92;;
69226;SDS011;56334;52.398;7.552;2023-09-19T01:18:27;13.38;;;2.80;;
69226;SDS011;56334;52.398;7.552;2023-09-19T01:28:51;10.02;;;2.30;;
69226;SDS011;56334;52.398;7.552;2023-09-19T01:31:22;11.30;;;2.35;;
69226;SDS011;56334;52.398;7.552;2023-09-19T01:36:25;9.25;;;2.20;;
69226;SDS011;56334;52.398;7.552;2023-09-19T01:41:18;13.07;;;2.88;;
69226;SDS011;56334;52.398;7.552;2023-09-19T01:43:47;10.27;;;2.35;;
69226;SDS011;56334;52.398;7.552;2023-09-19T01:46:21;10.15;;;2.13;;
69226;SDS011;56334;52.398;7.552;2023-09-19T01:49:05;10.40;;;2.17;;
69226;SDS011;56334;52.398;7.552;2023-09-19T01:51:37;10.60;;;1.85;;
69226;SDS011;56334;52.398;7.552;2023-09-19T01:54:09;15.02;;;2.20;;
69226;SDS011;56334;52.398;7.552;2023-09-19T01:56:42;9.65;;;2.50;;
69226;SDS011;56334;52.398;7.552;2023-09-19T01:59:13;11.45;;;2.17;;
69226;SDS011;56334;52.398;7.552;2023-09-19T02:01:39;8.07;;;2.10;;
69226;SDS011;56334;52.398;7.552;2023-09-19T02:04:07;8.75;;;2.10;;
69226;SDS011;56334;52.398;7.552;2023-09-19T02:06:33;12.40;;;2.75;;
69226;SDS011;56334;52.398;7.552;2023-09-19T02:08:59;11.30;;;2.30;;
69226;SDS011;56334;52.398;7.552;2023-09-19T02:11:25;13.23;;;2.88;;
69226;SDS011;56334;52.398;7.552;2023-09-19T02:13:51;13.55;;;2.47;;
69226;SDS011;56334;52.398;7.552;2023-09-19T02:16:19;8.68;;;2.25;;
69226;SDS011;56334;52.398;7.552;2023-09-19T02:18:46;10.55;;;2.10;;
69226;SDS011;56334;52.398;7.552;2023-09-19T02:21:12;12.82;;;2.38;;
69226;SDS011;56334;52.398;7.552;2023-09-19T02:23:38;10.63;;;2.35;;
69226;SDS011;56334;52.398;7.552;2023-09-19T02:26:04;13.25;;;2.72;;
69226;SDS011;56334;52.398;7.552;2023-09-19T02:28:30;11.77;;;2.20;;
69226;SDS011;56334;52.398;7.552;2023-09-19T02:30:57;12.38;;;2.80;;
69226;SDS011;56334;52.398;7.552;2023-09-19T02:33:24;10.75;;;2.50;;
69226;SDS011;56334;52.398;7.552;2023-09-19T02:35:54;11.02;;;2.28;;
69226;SDS011;56334;52.398;7.552;2023-09-19T02:38:22;9.55;;;2.15;;
69226;SDS011;56334;52.398;7.552;2023-09-19T02:40:50;10.88;;;2.40;;
69226;SDS011;56334;52.398;7.552;2023-09-19T02:43:16;10.38;;;2.53;;
69226;SDS011;56334;52.398;7.552;2023-09-19T02:45:42;12.18;;;2.33;;
69226;SDS011;56334;52.398;7.552;2023-09-19T02:48:08;13.20;;;2.53;;
69226;SDS011;56334;52.398;7.552;2023-09-19T02:50:36;11.18;;;2.50;;
69226;SDS011;56334;52.398;7.552;2023-09-19T02:53:04;12.00;;;2.45;;
69226;SDS011;56334;52.398;7.552;2023-09-19T02:55:31;13.38;;;2.90;;
69226;SDS011;56334;52.398;7.552;2023-09-19T02:57:57;13.45;;;2.70;;
69226;SDS011;56334;52.398;7.552;2023-09-19T03:00:24;12.70;;;2.35;;
69226;SDS011;56334;52.398;7.552;2023-09-19T03:02:50;10.02;;;2.30;;
69226;SDS011;56334;52.398;7.552;2023-09-19T03:07:43;10.25;;;2.40;;
69226;SDS011;56334;52.398;7.552;2023-09-19T03:10:10;13.25;;;2.38;;
69226;SDS011;56334;52.398;7.552;2023-09-19T03:12:36;12.38;;;2.42;;
69226;SDS011;56334;52.398;7.552;2023-09-19T03:15:05;11.48;;;2.20;;
69226;SDS011;56334;52.398;7.552;2023-09-19T03:17:33;11.38;;;2.25;;
69226;SDS011;56334;52.398;7.552;2023-09-19T03:19:59;10.27;;;2.33;;
69226;SDS011;56334;52.398;7.552;2023-09-19T03:22:26;9.32;;;2.25;;
69226;SDS011;56334;52.398;7.552;2023-09-19T03:24:52;11.25;;;2.30;;
69226;SDS011;56334;52.398;7.552;2023-09-19T03:27:19;10.43;;;2.40;;
69226;SDS011;56334;52.398;7.552;2023-09-19T03:29:45;13.15;;;2.88;;
69226;SDS011;56334;52.398;7.552;2023-09-19T03:32:11;14.90;;;2.72;;
69226;SDS011;56334;52.398;7.552;2023-09-19T03:34:38;8.95;;;2.20;;
69226;SDS011;56334;52.398;7.552;2023-09-19T03:37:08;14.38;;;2.65;;
69226;SDS011;56334;52.398;7.552;2023-09-19T03:39:35;14.52;;;2.75;;
69226;SDS011;56334;52.398;7.552;2023-09-19T03:42:01;16.98;;;2.92;;
69226;SDS011;56334;52.398;7.552;2023-09-19T03:44:32;14.10;;;2.45;;
69226;SDS011;56334;52.398;7.552;2023-09-19T03:46:58;11.60;;;2.30;;
69226;SDS011;56334;52.398;7.552;2023-09-19T03:49:23;12.60;;;2.50;;
69226;SDS011;56334;52.398;7.552;2023-09-19T03:51:49;12.45;;;2.58;;
69226;SDS011;56334;52.398;7.552;2023-09-19T03:54:16;13.68;;;2.17;;
69226;SDS011;56334;52.398;7.552;2023-09-19T03:56:42;13.02;;;2.85;;
69226;SDS011;56334;52.398;7.552;2023-09-19T03:59:09;16.65;;;2.85;;
69226;SDS011;56334;52.398;7.552;2023-09-19T04:01:35;13.23;;;2.47;;
69226;SDS011;56334;52.398;7.552;2023-09-19T04:04:02;17.20;;;2.55;;
69226;SDS011;56334;52.398;7.552;2023-09-19T04:06:33;13.18;;;2.78;;
69226;SDS011;56334;52.398;7.552;2023-09-19T04:09:03;10.95;;;2.45;;
69226;SDS011;56334;52.398;7.552;2023-09-19T04:11:29;13.55;;;2.65;;
69226;SDS011;56334;52.398;7.552;2023-09-19T04:13:56;12.10;;;2.28;;
69226;SDS011;56334;52.398;7.552;2023-09-19T04:16:22;15.57;;;2.47;;
69226;SDS011;56334;52.398;7.552;2023-09-19T04:18:48;11.38;;;2.38;;
69226;SDS011;56334;52.398;7.552;2023-09-19T04:21:14;12.98;;;2.60;;
69226;SDS011;56334;52.398;7.552;2023-09-19T04:23:41;13.70;;;3.08;;
69226;SDS011;56334;52.398;7.552;2023-09-19T04:28:33;10.77;;;2.35;;
69226;SDS011;56334;52.398;7.552;2023-09-19T04:31:01;10.82;;;2.67;;
69226;SDS011;56334;52.398;7.552;2023-09-19T04:33:27;11.70;;;2.67;;
69226;SDS011;56334;52.398;7.552;2023-09-19T04:35:53;12.55;;;2.65;;
69226;SDS011;56334;52.398;7.552;2023-09-19T04:38:20;11.95;;;2.70;;
69226;SDS011;56334;52.398;7.552;2023-09-19T04:40:46;13.63;;;2.70;;
69226;SDS011;56334;52.398;7.552;2023-09-19T04:43:12;12.88;;;2.35;;
69226;SDS011;56334;52.398;7.552;2023-09-19T04:45:38;13.00;;;2.20;;
69226;SDS011;56334;52.398;7.552;2023-09-19T04:48:07;12.85;;;2.63;;
69226;SDS011;56334;52.398;7.552;2023-09-19T04:50:33;9.43;;;2.00;;
69226;SDS011;56334;52.398;7.552;2023-09-19T04:52:59;12.90;;;2.28;;
69226;SDS011;56334;52.398;7.552;2023-09-19T04:55:26;10.75;;;2.22;;
69226;SDS011;56334;52.398;7.552;2023-09-19T04:57:52;9.82;;;1.90;;
69226;SDS011;56334;52.398;7.552;2023-09-19T05:00:19;12.93;;;2.47;;
69226;SDS011;56334;52.398;7.552;2023-09-19T05:02:51;9.77;;;2.13;;
69226;SDS011;56334;52.398;7.552;2023-09-19T05:05:17;14.70;;;2.67;;
69226;SDS011;56334;52.398;7.552;2023-09-19T05:07:44;15.10;;;2.47;;
69226;SDS011;56334;52.398;7.552;2023-09-19T05:10:10;14.93;;;2.65;;
69226;SDS011;56334;52.398;7.552;2023-09-19T05:12:37;10.48;;;2.13;;
69226;SDS011;56334;52.398;7.552;2023-09-19T05:15:03;12.48;;;2.58;;
69226;SDS011;56334;52.398;7.552;2023-09-19T05:19:56;10.45;;;2.30;;
69226;SDS011;56334;52.398;7.552;2023-09-19T05:22:23;10.65;;;2.05;;
69226;SDS011;56334;52.398;7.552;2023-09-19T05:24:49;11.57;;;2.00;;
69226;SDS011;56334;52.398;7.552;2023-09-19T05:27:16;13.40;;;2.45;;
69226;SDS011;56334;52.398;7.552;2023-09-19T05:29:45;11.15;;;2.35;;
69226;SDS011;56334;52.398;7.552;2023-09-19T05:32:11;10.18;;;1.98;;
69226;SDS011;56334;52.398;7.552;2023-09-19T05:34:37;10.70;;;1.77;;
69226;SDS011;56334;52.398;7.552;2023-09-19T05:37:04;12.18;;;2.05;;
69226;SDS011;56334;52.398;7.552;2023-09-19T05:39:33;15.70;;;2.63;;
69226;SDS011;56334;52.398;7.552;2023-09-19T05:41:59;11.10;;;2.00;;
69226;SDS011;56334;52.398;7.552;2023-09-19T05:44:25;12.25;;;2.25;;
69226;SDS011;56334;52.398;7.552;2023-09-19T05:46:51;12.32;;;2.08;;
69226;SDS011;56334;52.398;7.552;2023-09-19T05:49:22;12.20;;;2.03;;
69226;SDS011;56334;52.398;7.552;2023-09-19T05:51:49;11.75;;;2.30;;
69226;SDS011;56334;52.398;7.552;2023-09-19T05:54:18;12.10;;;2.00;;
69226;SDS011;56334;52.398;7.552;2023-09-19T05:56:45;12.50;;;2.05;;
69226;SDS011;56334;52.398;7.552;2023-09-19T05:59:12;12.52;;;2.00;;
69226;SDS011;56334;52.398;7.552;2023-09-19T06:01:40;12.73;;;2.00;;
69226;SDS011;56334;52.398;7.552;2023-09-19T06:04:07;12.88;;;2.05;;
69226;SDS011;56334;52.398;7.552;2023-09-19T06:06:33;10.95;;;2.20;;
69226;SDS011;56334;52.398;7.552;2023-09-19T06:09:05;13.23;;;2.13;;
69226;SDS011;56334;52.398;7.552;2023-09-19T06:11:31;10.80;;;2.05;;
69226;SDS011;56334;52.398;7.552;2023-09-19T06:14:01;10.20;;;1.80;;
69226;SDS011;56334;52.398;7.552;2023-09-19T06:16:27;10.80;;;1.73;;
69226;SDS011;56334;52.398;7.552;2023-09-19T06:21:21;8.45;;;1.83;;
69226;SDS011;56334;52.398;7.552;2023-09-19T06:23:47;9.60;;;2.15;;
69226;SDS011;56334;52.398;7.552;2023-09-19T06:26:13;10.00;;;2.00;;
69226;SDS011;56334;52.398;7.552;2023-09-19T06:28:39;10.30;;;1.63;;
69226;SDS011;56334;52.398;7.552;2023-09-19T06:33:35;12.35;;;1.95;;
69226;SDS011;56334;52.398;7.552;2023-09-19T06:36:03;10.43;;;1.70;;
69226;SDS011;56334;52.398;7.552;2023-09-19T06:38:29;9.73;;;1.73;;
69226;SDS011;56334;52.398;7.552;2023-09-19T06:40:58;11.65;;;1.60;;
69226;SDS011;56334;52.398;7.552;2023-09-19T06:43:26;10.15;;;2.00;;
69226;SDS011;56334;52.398;7.552;2023-09-19T06:45:52;9.25;;;1.55;;
69226;SDS011;56334;52.398;7.552;2023-09-19T06:48:19;9.90;;;2.47;;
69226;SDS011;56334;52.398;7.552;2023-09-19T06:50:46;9.35;;;2.25;;
69226;SDS011;56334;52.398;7.552;2023-09-19T06:53:13;13.35;;;2.10;;
69226;SDS011;56334;52.398;7.552;2023-09-19T06:55:39;12.40;;;1.95;;
69226;SDS011;56334;52.398;7.552;2023-09-19T06:58:05;11.68;;;1.80;;
69226;SDS011;56334;52.398;7.552;2023-09-19T07:00:31;10.93;;;1.90;;
69226;SDS011;56334;52.398;7.552;2023-09-19T07:03:01;10.80;;;1.98;;
69226;SDS011;56334;52.398;7.552;2023-09-19T07:05:29;9.00;;;1.75;;
69226;SDS011;56334;52.398;7.552;2023-09-19T07:07:56;10.05;;;1.63;;
69226;SDS011;56334;52.398;7.552;2023-09-19T07:10:26;10.10;;;2.15;;
69226;SDS011;56334;52.398;7.552;2023-09-19T07:12:56;12.65;;;1.88;;
69226;SDS011;56334;52.398;7.552;2023-09-19T07:15:23;11.07;;;2.55;;
69226;SDS011;56334;52.398;7.552;2023-09-19T07:20:15;12.07;;;1.73;;
69226;SDS011;56334;52.398;7.552;2023-09-19T07:22:41;10.23;;;1.83;;
69226;SDS011;56334;52.398;7.552;2023-09-19T07:25:07;10.43;;;1.55;;
69226;SDS011;56334;52.398;7.552;2023-09-19T07:27:33;9.75;;;1.67;;
69226;SDS011;56334;52.398;7.552;2023-09-19T07:29:59;10.57;;;1.92;;
69226;SDS011;56334;52.398;7.552;2023-09-19T07:32:25;11.27;;;1.75;;
69226;SDS011;56334;52.398;7.552;2023-09-19T07:34:51;11.60;;;2.10;;
69226;SDS011;56334;52.398;7.552;2023-09-19T07:37:19;12.00;;;2.33;;
69226;SDS011;56334;52.398;7.552;2023-09-19T07:39:46;14.20;;;2.30;;
69226;SDS011;56334;52.398;7.552;2023-09-19T07:42:12;7.95;;;1.73;;
69226;SDS011;56334;52.398;7.552;2023-09-19T07:44:42;9.48;;;1.92;;
69226;SDS011;56334;52.398;7.552;2023-09-19T07:47:08;12.77;;;2.10;;
69226;SDS011;56334;52.398;7.552;2023-09-19T07:49:34;11.35;;;2.08;;
69226;SDS011;56334;52.398;7.552;2023-09-19T07:52:00;13.10;;;1.88;;
69226;SDS011;56334;52.398;7.552;2023-09-19T07:54:27;8.38;;;1.70;;
69226;SDS011;56334;52.398;7.552;2023-09-19T07:56:55;9.20;;;1.80;;
69226;SDS011;56334;52.398;7.552;2023-09-19T07:59:21;12.80;;;1.95;;
69226;SDS011;56334;52.398;7.552;2023-09-19T08:01:47;9.85;;;1.60;;
69226;SDS011;56334;52.398;7.552;2023-09-19T08:04:13;10.98;;;1.55;;
69226;SDS011;56334;52.398;7.552;2023-09-19T08:06:39;9.27;;;1.70;;
69226;SDS011;56334;52.398;7.552;2023-09-19T08:09:05;16.10;;;2.00;;
69226;SDS011;56334;52.398;7.552;2023-09-19T08:11:34;11.15;;;1.95;;
69226;SDS011;56334;52.398;7.552;2023-09-19T08:14:00;10.85;;;2.17;;
69226;SDS011;56334;52.398;7.552;2023-09-19T08:16:26;13.32;;;2.20;;
69226;SDS011;56334;52.398;7.552;2023-09-19T08:18:52;12.40;;;1.85;;
69226;SDS011;56334;52.398;7.552;2023-09-19T08:21:23;9.63;;;1.85;;
69226;SDS011;56334;52.398;7.552;2023-09-19T08:23:50;11.25;;;2.10;;
69226;SDS011;56334;52.398;7.552;2023-09-19T08:26:17;9.48;;;2.13;;
69226;SDS011;56334;52.398;7.552;2023-09-19T08:28:44;13.65;;;1.85;;
69226;SDS011;56334;52.398;7.552;2023-09-19T08:31:10;9.60;;;2.17;;
69226;SDS011;56334;52.398;7.552;2023-09-19T08:33:37;12.00;;;2.15;;
69226;SDS011;56334;52.398;7.552;2023-09-19T08:36:03;11.00;;;1.95;;
69226;SDS011;56334;52.398;7.552;2023-09-19T08:38:33;14.00;;;2.30;;
69226;SDS011;56334;52.398;7.552;2023-09-19T08:41:00;12.45;;;2.15;;
69226;SDS011;56334;52.398;7.552;2023-09-19T08:45:58;11.50;;;2.10;;
69226;SDS011;56334;52.398;7.552;2023-09-19T08:48:28;11.82;;;1.98;;
69226;SDS011;56334;52.398;7.552;2023-09-19T08:50:56;8.57;;;1.80;;
69226;SDS011;56334;52.398;7.552;2023-09-19T08:53:42;12.50;;;2.22;;
69226;SDS011;56334;52.398;7.552;2023-09-19T08:56:11;12.85;;;2.03;;
69226;SDS011;56334;52.398;7.552;2023-09-19T08:58:51;10.43;;;1.80;;
69226;SDS011;56334;52.398;7.552;2023-09-19T09:01:20;12.40;;;2.13;;
69226;SDS011;56334;52.398;7.552;2023-09-19T09:03:49;11.60;;;2.58;;
69226;SDS011;56334;52.398;7.552;2023-09-19T09:06:17;13.70;;;2.45;;
69226;SDS011;56334;52.398;7.552;2023-09-19T09:08:43;12.45;;;2.03;;
69226;SDS011;56334;52.398;7.552;2023-09-19T09:11:10;11.50;;;2.22;;
69226;SDS011;56334;52.398;7.552;2023-09-19T09:13:36;11.05;;;1.75;;
69226;SDS011;56334;52.398;7.552;2023-09-19T09:16:02;11.50;;;2.13;;
69226;SDS011;56334;52.398;7.552;2023-09-19T09:18:28;11.20;;;2.10;;
69226;SDS011;56334;52.398;7.552;2023-09-19T09:20:57;13.00;;;2.15;;
69226;SDS011;56334;52.398;7.552;2023-09-19T09:23:23;12.88;;;2.22;;
69226;SDS011;56334;52.398;7.552;2023-09-19T09:25:51;12.85;;;2.38;;
69226;SDS011;56334;52.398;7.552;2023-09-19T09:28:22;12.70;;;2.28;;
69226;SDS011;56334;52.398;7.552;2023-09-19T09:30:48;11.30;;;2.10;;
69226;SDS011;56334;52.398;7.552;2023-09-19T09:33:15;11.93;;;2.55;;
69226;SDS011;56334;52.398;7.552;2023-09-19T09:35:48;12.80;;;2.35;;
69226;SDS011;56334;52.398;7.552;2023-09-19T09:38:21;8.00;;;1.60;;
69226;SDS011;56334;52.398;7.552;2023-09-19T09:40:52;11.63;;;1.83;;
69226;SDS011;56334;52.398;7.552;2023-09-19T09:43:40;12.40;;;2.22;;
69226;SDS011;56334;52.398;7.552;2023-09-19T09:51:38;10.70;;;2.20;;
69226;SDS011;56334;52.398;7.552;2023-09-19T09:54:11;12.00;;;2.47;;
69226;SDS011;56334;52.398;7.552;2023-09-19T09:57:00;10.80;;;2.10;;
69226;SDS011;56334;52.398;7.552;2023-09-19T10:02:15;10.05;;;2.20;;
69226;SDS011;56334;52.398;7.552;2023-09-19T10:07:44;11.50;;;1.98;;
69226;SDS011;56334;52.398;7.552;2023-09-19T10:10:34;12.52;;;1.85;;
69226;SDS011;56334;52.398;7.552;2023-09-19T10:13:07;13.65;;;2.70;;
69226;SDS011;56334;52.398;7.552;2023-09-19T10:15:37;11.98;;;1.92;;
69226;SDS011;56334;52.398;7.552;2023-09-19T10:18:06;11.43;;;2.22;;
69226;SDS011;56334;52.398;7.552;2023-09-19T10:20:51;10.13;;;1.75;;
69226;SDS011;56334;52.398;7.552;2023-09-19T10:23:18;10.38;;;2.20;;
69226;SDS011;56334;52.398;7.552;2023-09-19T10:25:54;16.70;;;2.42;;
69226;SDS011;56334;52.398;7.552;2023-09-19T10:28:20;10.02;;;1.80;;
69226;SDS011;56334;52.398;7.552;2023-09-19T10:30:52;10.70;;;2.00;;
69226;SDS011;56334;52.398;7.552;2023-09-19T10:33:22;12.63;;;2.10;;
69226;SDS011;56334;52.398;7.552;2023-09-19T10:35:55;10.77;;;2.15;;
69226;SDS011;56334;52.398;7.552;2023-09-19T10:38:23;9.50;;;2.10;;
69226;SDS011;56334;52.398;7.552;2023-09-19T10:40:50;12.68;;;2.72;;
69226;SDS011;56334;52.398;7.552;2023-09-19T10:43:17;12.25;;;2.13;;
69226;SDS011;56334;52.398;7.552;2023-09-19T10:45:44;11.75;;;2.30;;
69226;SDS011;56334;52.398;7.552;2023-09-19T10:48:14;11.30;;;2.17;;
69226;SDS011;56334;52.398;7.552;2023-09-19T10:53:10;10.93;;;2.10;;
69226;SDS011;56334;52.398;7.552;2023-09-19T10:55:37;10.75;;;2.13;;
69226;SDS011;56334;52.398;7.552;2023-09-19T11:00:52;10.95;;;2.15;;
69226;SDS011;56334;52.398;7.552;2023-09-19T11:03:20;12.43;;;2.00;;
69226;SDS011;56334;52.398;7.552;2023-09-19T11:22:26;10.30;;;2.10;;
69226;SDS011;56334;52.398;7.552;2023-09-19T11:28:27;10.38;;;2.05;;
69226;SDS011;56334;52.398;7.552;2023-09-19T11:30:55;11.90;;;2.17;;
69226;SDS011;56334;52.398;7.552;2023-09-19T11:33:26;8.95;;;1.80;;
69226;SDS011;56334;52.398;7.552;2023-09-19T11:46:53;7.93;;;1.65;;
69226;SDS011;56334;52.398;7.552;2023-09-19T11:49:30;12.93;;;2.13;;
69226;SDS011;56334;52.398;7.552;2023-09-19T11:51:58;11.43;;;2.30;;
69226;SDS011;56334;52.398;7.552;2023-09-19T11:54:29;10.30;;;2.10;;
69226;SDS011;56334;52.398;7.552;2023-09-19T11:56:57;12.18;;;2.30;;
69226;SDS011;56334;52.398;7.552;2023-09-19T11:59:24;10.55;;;1.80;;
69226;SDS011;56334;52.398;7.552;2023-09-19T12:01:53;11.32;;;2.10;;
69226;SDS011;56334;52.398;7.552;2023-09-19T12:04:44;12.73;;;2.50;;
69226;SDS011;56334;52.398;7.552;2023-09-19T12:07:14;10.95;;;2.25;;
69226;SDS011;56334;52.398;7.552;2023-09-19T12:09:41;11.20;;;2.13;;
69226;SDS011;56334;52.398;7.552;2023-09-19T12:12:09;10.23;;;2.10;;
69226;SDS011;56334;52.398;7.552;2023-09-19T12:14:38;13.73;;;2.42;;
69226;SDS011;56334;52.398;7.552;2023-09-19T12:17:06;9.30;;;1.95;;
69226;SDS011;56334;52.398;7.552;2023-09-19T12:19:32;14.45;;;2.20;;
69226;SDS011;56334;52.398;7.552;2023-09-19T12:22:02;9.77;;;2.10;;
69226;SDS011;56334;52.398;7.552;2023-09-19T12:24:31;10.75;;;2.03;;
69226;SDS011;56334;52.398;7.552;2023-09-19T12:27:03;12.82;;;2.05;;
69226;SDS011;56334;52.398;7.552;2023-09-19T12:29:30;13.77;;;2.45;;
69226;SDS011;56334;52.398;7.552;2023-09-19T12:34:23;10.57;;;1.70;;
69226;SDS011;56334;52.398;7.552;2023-09-19T12:37:03;9.43;;;1.90;;
69226;SDS011;56334;52.398;7.552;2023-09-19T12:39:41;11.95;;;2.05;;
69226;SDS011;56334;52.398;7.552;2023-09-19T12:42:11;7.57;;;1.73;;
69226;SDS011;56334;52.398;7.552;2023-09-19T12:44:41;9.25;;;2.00;;
69226;SDS011;56334;52.398;7.552;2023-09-19T12:47:11;11.82;;;2.22;;
69226;SDS011;56334;52.398;7.552;2023-09-19T12:52:26;8.60;;;1.73;;
69226;SDS011;56334;52.398;7.552;2023-09-19T12:54:52;8.75;;;1.88;;
69226;SDS011;56334;52.398;7.552;2023-09-19T12:57:24;11.27;;;1.90;;
69226;SDS011;56334;52.398;7.552;2023-09-19T12:59:52;12.13;;;2.25;;
69226;SDS011;56334;52.398;7.552;2023-09-19T13:02:18;10.10;;;1.88;;
69226;SDS011;56334;52.398;7.552;2023-09-19T13:04:54;13.07;;;1.92;;
69226;SDS011;56334;52.398;7.552;2023-09-19T13:07:40;8.15;;;1.88;;
69226;SDS011;56334;52.398;7.552;2023-09-19T13:10:12;8.90;;;1.77;;
69226;SDS011;56334;52.398;7.552;2023-09-19T13:12:40;10.20;;;2.22;;
69226;SDS011;56334;52.398;7.552;2023-09-19T13:15:09;7.60;;;1.63;;
69226;SDS011;56334;52.398;7.552;2023-09-19T13:17:47;11.20;;;1.65;;
69226;SDS011;56334;52.398;7.552;2023-09-19T13:20:26;8.85;;;1.90;;
69226;SDS011;56334;52.398;7.552;2023-09-19T13:22:52;8.05;;;1.90;;
69226;SDS011;56334;52.398;7.552;2023-09-19T13:25:20;14.95;;;2.08;;
69226;SDS011;56334;52.398;7.552;2023-09-19T13:27:47;9.63;;;1.88;;
69226;SDS011;56334;52.398;7.552;2023-09-19T13:30:16;8.77;;;1.80;;
69226;SDS011;56334;52.398;7.552;2023-09-19T13:32:42;10.27;;;1.65;;
69226;SDS011;56334;52.398;7.552;2023-09-19T13:35:09;10.75;;;1.70;;
69226;SDS011;56334;52.398;7.552;2023-09-19T13:37:35;12.88;;;2.03;;
69226;SDS011;56334;52.398;7.552;2023-09-19T13:40:06;8.20;;;1.67;;
69226;SDS011;56334;52.398;7.552;2023-09-19T13:42:32;10.05;;;1.80;;
69226;SDS011;56334;52.398;7.552;2023-09-19T13:44:58;10.40;;;2.30;;
69226;SDS011;56334;52.398;7.552;2023-09-19T13:47:24;9.00;;;1.52;;
69226;SDS011;56334;52.398;7.552;2023-09-19T13:49:51;9.55;;;1.80;;
69226;SDS011;56334;52.398;7.552;2023-09-19T13:52:18;9.13;;;1.65;;
69226;SDS011;56334;52.398;7.552;2023-09-19T13:54:44;8.50;;;1.83;;
69226;SDS011;56334;52.398;7.552;2023-09-19T13:57:13;9.82;;;2.00;;
69226;SDS011;56334;52.398;7.552;2023-09-19T13:59:39;10.15;;;1.70;;
69226;SDS011;56334;52.398;7.552;2023-09-19T14:02:05;10.85;;;1.90;;
69226;SDS011;56334;52.398;7.552;2023-09-19T14:04:32;9.82;;;1.77;;
69226;SDS011;56334;52.398;7.552;2023-09-19T14:06:59;13.82;;;2.03;;
69226;SDS011;56334;52.398;7.552;2023-09-19T14:09:26;8.50;;;1.80;;
69226;SDS011;56334;52.398;7.552;2023-09-19T14:11:52;9.73;;;1.63;;
69226;SDS011;56334;52.398;7.552;2023-09-19T14:14:21;10.95;;;2.10;;
69226;SDS011;56334;52.398;7.552;2023-09-19T14:16:47;8.40;;;1.95;;
69226;SDS011;56334;52.398;7.552;2023-09-19T14:19:13;10.27;;;1.80;;
69226;SDS011;56334;52.398;7.552;2023-09-19T14:21:41;9.95;;;1.65;;
69226;SDS011;56334;52.398;7.552;2023-09-19T14:24:07;7.80;;;1.70;;
69226;SDS011;56334;52.398;7.552;2023-09-19T14:26:35;9.68;;;1.70;;
69226;SDS011;56334;52.398;7.552;2023-09-19T14:31:27;8.93;;;1.65;;
69226;SDS011;56334;52.398;7.552;2023-09-19T14:33:56;7.65;;;1.77;;
69226;SDS011;56334;52.398;7.552;2023-09-19T14:36:22;8.38;;;1.67;;
69226;SDS011;56334;52.398;7.552;2023-09-19T14:38:51;9.20;;;1.60;;
69226;SDS011;56334;52.398;7.552;2023-09-19T14:41:19;8.48;;;1.60;;
69226;SDS011;56334;52.398;7.552;2023-09-19T14:43:45;9.93;;;1.77;;
69226;SDS011;56334;52.398;7.552;2023-09-19T14:46:11;9.52;;;1.63;;
69226;SDS011;56334;52.398;7.552;2023-09-19T14:48:37;7.65;;;1.60;;
69226;SDS011;56334;52.398;7.552;2023-09-19T14:51:03;8.85;;;1.55;;
69226;SDS011;56334;52.398;7.552;2023-09-19T14:55:55;7.47;;;1.50;;
69226;SDS011;56334;52.398;7.552;2023-09-19T14:58:21;6.45;;;1.60;;
69226;SDS011;56334;52.398;7.552;2023-09-19T15:00:47;7.00;;;1.58;;
69226;SDS011;56334;52.398;7.552;2023-09-19T15:03:13;11.05;;;1.58;;
69226;SDS011;56334;52.398;7.552;2023-09-19T15:05:39;9.70;;;1.55;;
69226;SDS011;56334;52.398;7.552;2023-09-19T15:08:06;7.43;;;1.50;;
69226;SDS011;56334;52.398;7.552;2023-09-19T15:10:32;7.22;;;1.42;;
69226;SDS011;56334;52.398;7.552;2023-09-19T15:12:59;7.00;;;1.70;;
69226;SDS011;56334;52.398;7.552;2023-09-19T15:15:25;9.50;;;1.50;;
69226;SDS011;56334;52.398;7.552;2023-09-19T15:17:51;10.63;;;1.77;;
69226;SDS011;56334;52.398;7.552;2023-09-19T15:20:17;7.05;;;1.27;;
69226;SDS011;56334;52.398;7.552;2023-09-19T15:22:43;8.63;;;1.58;;
69226;SDS011;56334;52.398;7.552;2023-09-19T15:25:09;8.05;;;1.40;;
69226;SDS011;56334;52.398;7.552;2023-09-19T15:27:35;7.80;;;1.45;;
69226;SDS011;56334;52.398;7.552;2023-09-19T15:30:02;8.25;;;1.55;;
69226;SDS011;56334;52.398;7.552;2023-09-19T15:32:28;6.95;;;1.58;;
69226;SDS011;56334;52.398;7.552;2023-09-19T15:37:20;7.88;;;1.40;;
69226;SDS011;56334;52.398;7.552;2023-09-19T15:42:13;10.32;;;1.50;;
69226;SDS011;56334;52.398;7.552;2023-09-19T15:44:41;5.43;;;1.17;;
69226;SDS011;56334;52.398;7.552;2023-09-19T15:47:08;7.68;;;1.30;;
69226;SDS011;56334;52.398;7.552;2023-09-19T15:49:34;7.15;;;1.60;;
69226;SDS011;56334;52.398;7.552;2023-09-19T15:52:00;7.28;;;1.30;;
69226;SDS011;56334;52.398;7.552;2023-09-19T15:54:26;8.73;;;1.40;;
69226;SDS011;56334;52.398;7.552;2023-09-19T15:56:52;6.28;;;1.50;;
69226;SDS011;56334;52.398;7.552;2023-09-19T15:59:20;9.13;;;1.50;;
69226;SDS011;56334;52.398;7.552;2023-09-19T16:01:46;8.68;;;1.50;;
69226;SDS011;56334;52.398;7.552;2023-09-19T16:04:13;6.88;;;1.30;;
69226;SDS011;56334;52.398;7.552;2023-09-19T16:06:39;6.38;;;1.15;;
69226;SDS011;56334;52.398;7.552;2023-09-19T16:09:06;6.68;;;1.30;;
69226;SDS011;56334;52.398;7.552;2023-09-19T16:11:32;6.35;;;1.20;;
69226;SDS011;56334;52.398;7.552;2023-09-19T16:13:59;9.23;;;1.60;;
69226;SDS011;56334;52.398;7.552;2023-09-19T16:16:26;6.78;;;1.30;;
69226;SDS011;56334;52.398;7.552;2023-09-19T16:18:59;6.40;;;1.20;;
69226;SDS011;56334;52.398;7.552;2023-09-19T16:21:31;6.88;;;1.10;;
69226;SDS011;56334;52.398;7.552;2023-09-19T16:26:24;5.50;;;1.02;;
69226;SDS011;56334;52.398;7.552;2023-09-19T16:31:16;6.70;;;1.10;;
69226;SDS011;56334;52.398;7.552;2023-09-19T16:33:44;8.70;;;1.27;;